Time;durP1;ratioP1;P1;durP2;ratioP2;P2;SDS_P1;SDS_P2;PMS_P1;PMS_P2;Temp;Humidity;BMP_temperature;BMP_pressure;BME280_temperature;BME280_humidity;BME280_pressure;Samples;Min_cycle;Max_cycle;Signal;HPM_P1;HPM_P2
2022/02/17 00:00:54;;;;;;;3.70;1.20;;;;;;;16.58;59.59;99222.03;4993280;28;113496;-83
2022/02/17 00:03:21;;;;;;;5.43;1.48;;;;;;;16.49;59.46;99203.19;4975742;28;124124;-82
2022/02/17 00:05:49;;;;;;;5.80;1.15;;;;;;;16.42;59.56;99228.81;4991197;28;123659;-82
2022/02/17 00:08:19;;;;;;;4.13;1.02;;;;;;;16.30;59.39;99208.63;4990607;28;114333;-80
2022/02/17 00:10:47;;;;;;;3.55;1.10;;;;;;;16.19;59.42;99195.44;4973887;28;115180;-79
2022/02/17 00:13:14;;;;;;;4.47;1.00;;;;;;;16.07;59.46;99241.03;4957331;28;124203;-80
2022/02/17 00:15:41;;;;;;;3.35;0.90;;;;;;;15.91;58.90;99179.34;4974410;28;123723;-81
2022/02/17 00:18:14;;;;;;;2.15;1.10;;;;;;;15.67;58.38;99196.66;4992261;28;114412;-80
2022/02/17 00:20:41;;;;;;;2.95;0.90;;;;;;;15.43;58.42;99175.75;4957895;28;112715;-80
2022/02/17 00:23:08;;;;;;;4.80;1.00;;;;;;;15.22;58.79;99194.56;4973711;28;123143;-80
2022/02/17 00:25:35;;;;;;;4.88;1.00;;;;;;;15.05;59.06;99189.91;4974389;28;122865;-80
2022/02/17 00:28:02;;;;;;;4.95;1.30;;;;;;;14.90;59.56;99206.31;4974248;28;114265;-80
2022/02/17 00:30:31;;;;;;;5.00;1.05;;;;;;;14.81;59.88;99231.13;4974630;28;113085;-79
2022/02/17 00:32:58;;;;;;;3.13;1.10;;;;;;;14.74;60.20;99198.81;4991647;28;123899;-80
2022/02/17 00:35:30;;;;;;;5.97;1.30;;;;;;;14.70;60.63;99209.91;4973848;28;123271;-80
2022/02/17 00:38:00;;;;;;;4.35;1.30;;;;;;;14.70;61.03;99196.59;4974190;28;113366;-80
2022/02/17 00:40:28;;;;;;;5.15;1.30;;;;;;;14.72;61.21;99195.47;4973974;28;113357;-81
2022/02/17 00:42:56;;;;;;;4.57;1.10;;;;;;;14.76;61.55;99217.34;4992557;28;122982;-78
2022/02/17 00:45:23;;;;;;;5.95;1.40;;;;;;;14.80;61.71;99216.09;4978618;28;124049;-80
2022/02/17 00:47:50;;;;;;;4.20;1.33;;;;;;;14.85;61.64;99227.19;5007143;28;114989;-79
2022/02/17 00:50:17;;;;;;;3.65;1.02;;;;;;;14.83;61.14;99217.66;5010926;28;114326;-78
2022/02/17 00:52:45;;;;;;;5.35;1.17;;;;;;;14.76;60.87;99212.03;4988447;28;125742;-80
2022/02/17 00:55:12;;;;;;;4.90;1.20;;;;;;;14.67;60.88;99228.81;4977846;28;122149;-78
2022/02/17 00:57:39;;;;;;;4.00;1.13;;;;;;;14.58;60.76;99210.00;4992118;28;115152;-81
2022/02/17 01:00:07;;;;;;;6.30;1.13;;;;;;;14.53;60.64;99222.84;4990498;28;114159;-79
2022/02/17 01:02:37;;;;;;;6.60;1.83;;;;;;;14.48;60.85;99214.41;4972876;28;123647;-79
2022/02/17 01:05:07;;;;;;;10.48;1.40;;;;;;;14.44;60.97;99221.00;4973554;28;123462;-78
2022/02/17 01:07:34;;;;;;;5.18;1.13;;;;;;;14.38;61.16;99229.53;4972825;28;113837;-78
2022/02/17 01:10:01;;;;;;;7.95;1.48;;;;;;;14.34;61.29;99212.13;4973023;28;112706;-79
2022/02/17 01:12:28;;;;;;;3.78;1.30;;;;;;;14.32;61.77;99208.75;4991175;28;124209;-77
2022/02/17 01:14:55;;;;;;;6.65;1.42;;;;;;;14.32;61.85;99200.78;4976962;28;123910;-80
2022/02/17 01:17:22;;;;;;;8.07;2.53;;;;;;;14.36;61.97;99236.81;4976365;28;113104;-77
2022/02/17 01:19:50;;;;;;;6.72;1.38;;;;;;;14.39;61.91;99224.06;4975782;28;113622;-79
2022/02/17 01:22:17;;;;;;;7.72;1.70;;;;;;;14.45;61.97;99236.00;4974756;28;123571;-78
2022/02/17 01:24:46;;;;;;;9.30;1.67;;;;;;;14.50;62.08;99279.06;4992364;28;124326;-79
2022/02/17 01:27:13;;;;;;;9.93;2.05;;;;;;;14.53;61.88;99246.84;4976168;28;114841;-79
2022/02/17 01:29:40;;;;;;;8.07;2.00;;;;;;;14.56;61.70;99265.22;4976084;28;113249;-78
2022/02/17 01:32:08;;;;;;;8.48;1.63;;;;;;;14.61;61.57;99251.53;4991605;28;124565;-80
2022/02/17 01:34:39;;;;;;;10.90;1.60;;;;;;;14.63;61.38;99248.72;4974115;28;122802;-78
2022/02/17 01:37:07;;;;;;;7.93;1.63;;;;;;;14.68;61.36;99283.81;4958175;28;114107;-79
2022/02/17 01:39:36;;;;;;;6.18;1.85;;;;;;;14.70;61.21;99293.34;4974167;28;113112;-80
2022/02/17 01:42:10;;;;;;;7.63;1.73;;;;;;;14.74;61.14;99272.63;4972852;28;124108;-79
2022/02/17 01:44:46;;;;;;;11.50;1.90;;;;;;;14.78;60.71;99311.34;4989554;28;122363;-79
2022/02/17 01:47:15;;;;;;;10.68;1.73;;;;;;;14.79;60.57;99295.22;4973498;28;114966;-81
2022/02/17 01:49:44;;;;;;;10.38;1.67;;;;;;;14.81;60.51;99281.75;4973145;28;115269;-80
2022/02/17 01:52:13;;;;;;;10.27;2.15;;;;;;;14.82;60.34;99299.41;4989478;28;124513;-79
2022/02/17 01:54:44;;;;;;;9.65;1.95;;;;;;;14.85;60.15;99319.66;4990972;28;124168;-80
2022/02/17 01:57:25;;;;;;;8.30;1.75;;;;;;;14.86;60.01;99318.66;4957376;28;113477;-79
2022/02/17 01:59:56;;;;;;;8.52;1.98;;;;;;;14.87;59.91;99310.53;4973851;28;113713;-80
2022/02/17 02:02:28;;;;;;;10.48;1.88;;;;;;;14.88;59.49;99322.91;4973061;28;123700;-80
2022/02/17 02:05:00;;;;;;;13.98;2.15;;;;;;;14.90;59.55;99331.59;4974604;28;123662;-79
2022/02/17 02:07:27;;;;;;;7.40;1.70;;;;;;;14.90;59.49;99347.59;4993033;28;115003;-80
2022/02/17 02:09:58;;;;;;;11.73;2.10;;;;;;;14.89;59.43;99351.22;4974957;28;113924;-79
2022/02/17 02:12:31;;;;;;;13.15;1.95;;;;;;;14.89;59.13;99351.22;4973489;28;123673;-81
2022/02/17 02:15:00;;;;;;;12.18;1.92;;;;;;;14.88;58.73;99392.22;4974349;28;123034;-81
2022/02/17 02:17:29;;;;;;;8.30;1.80;;;;;;;14.86;58.44;99359.50;4974409;28;114202;-81
2022/02/17 02:19:57;;;;;;;10.00;2.17;;;;;;;14.85;58.22;99397.78;4973565;28;113398;-80
2022/02/17 02:22:28;;;;;;;10.43;1.60;;;;;;;14.82;58.16;99387.38;4973856;28;123243;-80
2022/02/17 02:24:58;;;;;;;12.02;2.05;;;;;;;14.79;58.05;99387.66;4974913;28;123177;-81
2022/02/17 02:27:28;;;;;;;12.82;2.10;;;;;;;14.77;57.82;99384.28;4976655;28;113070;-79
2022/02/17 02:29:57;;;;;;;13.85;2.38;;;;;;;14.75;57.67;99386.25;4976565;28;113197;-79
2022/02/17 02:32:30;;;;;;;10.80;2.03;;;;;;;14.71;57.52;99422.97;4990997;28;123511;-80
2022/02/17 02:34:57;;;;;;;9.32;1.63;;;;;;;14.69;57.82;99418.72;4975114;28;124197;-81
2022/02/17 02:37:26;;;;;;;8.68;1.55;;;;;;;14.66;57.37;99419.00;4975430;28;115194;-80
2022/02/17 02:39:53;;;;;;;9.52;2.10;;;;;;;14.66;56.87;99419.00;4991442;28;114779;-80
2022/02/17 02:42:22;;;;;;;11.65;1.77;;;;;;;14.63;56.88;99440.56;4958918;28;123734;-80
2022/02/17 02:44:51;;;;;;;8.48;1.95;;;;;;;14.62;56.71;99445.06;4991449;28;122826;-80
2022/02/17 02:47:19;;;;;;;12.57;2.45;;;;;;;14.60;56.76;99442.53;4975414;28;113878;-80
2022/02/17 02:49:46;;;;;;;13.88;2.53;;;;;;;14.58;56.66;99441.81;4959038;28;113075;-80
2022/02/17 02:52:13;;;;;;;11.30;2.10;;;;;;;14.56;56.50;99456.19;4991764;28;123470;-80
2022/02/17 02:54:43;;;;;;;11.45;2.15;;;;;;;14.55;56.31;99451.84;4991779;28;123781;-81
2022/02/17 02:57:10;;;;;;;14.13;2.15;;;;;;;14.53;56.29;99478.63;4981954;28;114257;-80
2022/02/17 02:59:41;;;;;;;11.30;1.92;;;;;;;14.51;56.02;99469.91;5009812;28;113601;-80
2022/02/17 03:02:14;;;;;;;12.02;2.20;;;;;;;14.47;56.04;99489.78;5011474;28;123712;-81
2022/02/17 03:04:41;;;;;;;8.02;2.00;;;;;;;14.46;55.67;99493.41;5012119;28;123831;-79
2022/02/17 03:07:15;;;;;;;11.13;2.20;;;;;;;14.43;55.54;99491.03;4997319;28;113462;-81
2022/02/17 03:09:46;;;;;;;14.05;2.10;;;;;;;14.40;55.53;99520.56;5011756;28;113689;-81
2022/02/17 03:12:16;;;;;;;11.82;2.17;;;;;;;14.38;55.21;99514.53;5012027;28;124911;-80
2022/02/17 03:14:46;;;;;;;15.32;2.85;;;;;;;14.36;55.37;99508.47;4995542;28;123504;-80
2022/02/17 03:17:23;;;;;;;16.85;2.60;;;;;;;14.32;55.19;99528.34;5012896;28;114059;-80
2022/02/17 03:19:52;;;;;;;14.50;2.42;;;;;;;14.31;55.13;99526.66;5013058;28;113564;-81
2022/02/17 03:22:19;;;;;;;13.43;2.22;;;;;;;14.28;55.01;99556.19;5012535;28;123650;-80
2022/02/17 03:24:47;;;;;;;15.35;2.25;;;;;;;14.26;54.85;99547.47;4994522;28;123184;-81
2022/02/17 03:27:14;;;;;;;13.35;1.90;;;;;;;14.22;54.64;99584.16;4989306;28;113828;-81
2022/02/17 03:29:42;;;;;;;10.23;1.98;;;;;;;14.21;54.71;99580.66;5010880;28;114500;-79
2022/02/17 03:32:09;;;;;;;12.25;1.90;;;;;;;14.18;54.42;99562.28;5015040;28;123629;-79
2022/02/17 03:34:38;;;;;;;9.15;1.65;;;;;;;14.16;54.30;99577.50;5006706;28;122944;-81
2022/02/17 03:37:05;;;;;;;9.10;1.75;;;;;;;14.14;54.15;99583.94;5017710;28;114198;-82
2022/02/17 03:39:33;;;;;;;14.93;2.20;;;;;;;14.12;54.16;99592.03;4998946;28;113677;-81
2022/02/17 03:42:32;;;;;;;12.68;2.17;;;;;;;14.10;54.13;99593.97;5002708;28;123565;-80
2022/02/17 03:45:04;;;;;;;10.50;2.08;;;;;;;14.09;54.16;99613.59;5014795;28;123333;-82
2022/02/17 03:47:32;;;;;;;10.85;2.15;;;;;;;14.08;54.06;99611.91;4998242;28;113738;-81
2022/02/17 03:50:08;;;;;;;13.35;2.70;;;;;;;14.08;54.23;99609.25;4999175;28;114510;-82
2022/02/17 03:52:37;;;;;;;13.82;2.10;;;;;;;14.08;54.14;99617.22;5013981;28;123685;-82
2022/02/17 03:55:33;;;;;;;13.63;2.50;;;;;;;14.10;54.28;99609.97;5003171;28;123925;-80
2022/02/17 03:58:00;;;;;;;14.20;2.25;;;;;;;14.11;54.05;99621.44;5014645;28;114129;-80
2022/02/17 04:00:32;;;;;;;14.30;2.22;;;;;;;14.10;54.19;99644.56;4997841;28;112555;-80
2022/02/17 04:03:04;;;;;;;14.88;2.45;;;;;;;14.12;54.03;99626.66;4997708;28;123419;-78
2022/02/17 04:05:34;;;;;;;13.43;2.40;;;;;;;14.13;54.11;99641.69;5013632;28;124024;-81
2022/02/17 04:08:08;;;;;;;17.50;2.58;;;;;;;14.15;53.90;99637.06;5013722;28;114127;-80
2022/02/17 04:10:35;;;;;;;18.33;2.80;;;;;;;14.15;53.90;99655.72;5013699;28;113840;-80
2022/02/17 04:13:06;;;;;;;13.82;2.20;;;;;;;14.15;53.95;99660.19;5012911;28;124124;-80
2022/02/17 04:15:45;;;;;;;13.70;2.67;;;;;;;14.14;53.80;99647.84;5013556;28;122435;-80
2022/02/17 04:18:26;;;;;;;16.60;2.88;;;;;;;14.13;53.73;99668.31;4998591;28;114591;-79
2022/02/17 04:21:14;;;;;;;17.25;3.08;;;;;;;14.12;53.67;99661.28;5014162;28;114832;-80
2022/02/17 04:23:51;;;;;;;14.77;2.15;;;;;;;14.11;53.56;99670.25;5014122;28;123973;-80
2022/02/17 04:26:22;;;;;;;18.13;2.65;;;;;;;14.10;53.67;99673.84;4998253;28;123320;-80
2022/02/17 04:28:57;;;;;;;18.83;2.67;;;;;;;14.09;53.67;99682.84;5014023;28;113458;-80
2022/02/17 04:31:29;;;;;;;13.10;2.50;;;;;;;14.08;53.72;99674.97;4997692;28;112813;-80
2022/02/17 04:33:56;;;;;;;15.93;2.70;;;;;;;14.07;53.50;99690.09;5013001;28;123706;-80
2022/02/17 04:36:25;;;;;;;12.60;2.30;;;;;;;14.07;53.61;99683.91;4997700;28;123988;-80
2022/02/17 04:38:53;;;;;;;14.73;2.70;;;;;;;14.04;53.18;99695.66;4996890;28;113795;-81
2022/02/17 04:44:13;;;;;;;14.60;2.30;;;;;;;14.00;53.47;99710.16;5012533;28;123824;-80
2022/02/17 04:46:42;;;;;;;18.15;2.83;;;;;;;13.98;53.23;99690.81;4997456;28;121868;-80
2022/02/17 04:49:11;;;;;;;14.45;2.22;;;;;;;13.97;53.17;99710.41;5013643;28;113080;-81
2022/02/17 04:51:38;;;;;;;14.75;2.58;;;;;;;13.98;52.96;99738.72;4997571;28;113589;-80
2022/02/17 04:54:09;;;;;;;17.33;2.97;;;;;;;13.98;53.00;99722.75;4996717;28;124550;-80
2022/02/17 04:56:39;;;;;;;18.50;3.13;;;;;;;13.97;53.01;99742.34;4997355;28;124122;-80
2022/02/17 04:59:07;;;;;;;16.92;2.90;;;;;;;13.96;53.16;99730.00;5015522;28;113722;-80
2022/02/17 05:01:41;;;;;;;18.83;3.45;;;;;;;13.95;52.98;99733.63;5014827;28;113402;-80
2022/02/17 05:04:22;;;;;;;16.85;2.90;;;;;;;13.94;53.15;99746.09;5013815;28;124074;-81
2022/02/17 05:06:58;;;;;;;15.65;2.95;;;;;;;13.95;53.13;99754.94;5012864;28;124022;-80
2022/02/17 05:09:25;;;;;;;21.60;2.85;;;;;;;13.92;53.28;99771.13;5013649;28;114012;-80
2022/02/17 05:11:53;;;;;;;19.98;3.03;;;;;;;13.92;53.19;99755.16;5013197;28;115326;-80
2022/02/17 05:14:26;;;;;;;18.65;2.78;;;;;;;13.91;53.13;99764.97;5013882;27;122837;-80
2022/02/17 05:16:54;;;;;;;18.30;3.13;;;;;;;13.90;53.18;99773.91;4997468;28;122189;-79
2022/02/17 05:19:28;;;;;;;18.17;3.38;;;;;;;13.88;53.09;99777.66;5012671;28;113257;-80
2022/02/17 05:22:15;;;;;;;16.58;2.58;;;;;;;13.85;53.19;99780.56;5014201;28;114220;-80
2022/02/17 05:25:00;;;;;;;16.48;2.58;;;;;;;13.80;53.09;99789.72;5015237;28;124621;-80
2022/02/17 05:27:27;;;;;;;21.45;3.22;;;;;;;13.80;53.26;99807.50;5013747;28;124708;-80
2022/02/17 05:30:17;;;;;;;23.40;3.42;;;;;;;13.78;53.23;99791.66;5012274;28;113492;-81
2022/02/17 05:33:10;;;;;;;15.55;2.70;;;;;;;13.77;53.52;99821.06;5014737;28;115056;-80
2022/02/17 05:35:56;;;;;;;19.80;3.13;;;;;;;13.75;53.34;99807.00;5014374;28;124860;-81
2022/02/17 05:39:02;;;;;;;20.53;3.00;;;;;;;13.73;53.32;99836.41;4987357;28;124354;-79
2022/02/17 05:41:37;;;;;;;21.30;3.80;;;;;;;13.70;53.29;99825.97;5014256;28;114370;-80
2022/02/17 05:44:05;;;;;;;18.80;3.25;;;;;;;13.67;53.39;99825.34;4997458;28;113074;-80
2022/02/17 05:46:32;;;;;;;20.42;2.92;;;;;;;13.65;53.12;99828.13;5013748;28;123052;-80
2022/02/17 05:49:00;;;;;;;21.23;3.00;;;;;;;13.62;53.30;99831.03;4996897;28;122931;-79
2022/02/17 05:51:27;;;;;;;24.67;3.97;;;;;;;13.60;53.13;99840.94;5013282;28;113852;-80
2022/02/17 05:53:54;;;;;;;18.33;2.80;;;;;;;13.58;53.15;99853.47;4998684;28;111685;-80
2022/02/17 05:56:21;;;;;;;17.58;2.78;;;;;;;13.56;53.24;99866.03;5015373;28;123824;-80
2022/02/17 05:58:48;;;;;;;19.02;3.63;;;;;;;13.55;52.94;99872.34;5015051;28;123512;-80
2022/02/17 06:01:15;;;;;;;17.55;3.25;;;;;;;13.53;53.00;99892.91;5012902;28;114524;-80
2022/02/17 06:03:42;;;;;;;16.52;2.53;;;;;;;13.52;52.88;99872.56;4997575;28;114441;-80
2022/02/17 06:06:09;;;;;;;19.73;3.17;;;;;;;13.52;52.91;99875.22;4996715;28;123026;-80
2022/02/17 06:08:36;;;;;;;15.57;2.70;;;;;;;13.52;52.88;99864.56;5014531;28;123909;-80
2022/02/17 06:11:03;;;;;;;16.33;3.05;;;;;;;13.52;53.06;99875.22;5022895;28;113524;-78
2022/02/17 06:13:31;;;;;;;19.08;2.60;;;;;;;13.51;52.98;99873.53;5031187;28;114814;-79
2022/02/17 06:16:02;;;;;;;18.83;3.78;;;;;;;13.51;52.87;99900.13;5029638;28;123891;-79
2022/02/17 06:18:29;;;;;;;15.95;2.90;;;;;;;13.51;53.14;99916.09;5015014;28;122977;-79
2022/02/17 06:20:56;;;;;;;18.33;2.72;;;;;;;13.48;52.81;99895.03;5031441;28;112364;-80
2022/02/17 06:23:23;;;;;;;19.00;3.00;;;;;;;13.46;52.63;99916.41;5015622;28;113153;-79
2022/02/17 06:25:50;;;;;;;16.98;3.00;;;;;;;13.44;52.48;99927.16;5031944;28;123334;-80
2022/02/17 06:28:17;;;;;;;14.98;2.50;;;;;;;13.42;52.42;99922.91;5031825;28;123609;-78
2022/02/17 06:30:45;;;;;;;12.80;1.95;;;;;;;13.40;52.25;99924.84;5031626;28;113040;-79
2022/02/17 06:33:12;;;;;;;16.13;2.38;;;;;;;13.38;52.28;99922.28;5033283;27;113223;-79
2022/02/17 06:35:40;;;;;;;18.67;2.75;;;;;;;13.38;52.36;99942.72;5032098;28;123983;-79
2022/02/17 06:38:07;;;;;;;16.00;2.72;;;;;;;13.36;52.38;99966.75;5031149;28;124084;-80
2022/02/17 06:40:34;;;;;;;9.65;2.38;;;;;;;13.37;52.12;99956.97;5030550;28;113519;-79
2022/02/17 06:43:05;;;;;;;12.98;2.30;;;;;;;13.36;52.24;99972.09;5030626;28;112373;-79
2022/02/17 06:45:34;;;;;;;13.63;2.50;;;;;;;13.37;52.02;100000.41;5024258;28;125015;-80
2022/02/17 06:48:04;;;;;;;9.93;2.58;;;;;;;13.34;51.84;100005.91;5001897;28;124281;-80
2022/02/17 06:50:32;;;;;;;16.55;3.13;;;;;;;13.32;51.97;99997.19;5026913;28;116109;-79
2022/02/17 06:53:06;;;;;;;18.48;2.92;;;;;;;13.31;52.01;100011.44;5031330;28;113414;-80
2022/02/17 06:55:34;;;;;;;18.40;2.65;;;;;;;13.31;51.73;100026.56;5028936;28;123703;-79
2022/02/17 06:58:04;;;;;;;16.15;2.63;;;;;;;13.29;51.73;100023.97;5013227;28;121977;-79
2022/02/17 07:00:31;;;;;;;17.27;2.97;;;;;;;13.27;51.97;100036.50;5029905;28;113619;-80
2022/02/17 07:02:59;;;;;;;10.70;2.17;;;;;;;13.26;51.65;100045.47;5031580;28;114165;-80
2022/02/17 07:05:26;;;;;;;11.27;2.40;;;;;;;13.25;51.77;100035.78;5032734;28;124600;-80
2022/02/17 07:07:53;;;;;;;16.73;2.90;;;;;;;13.24;51.75;100044.69;5033762;28;124694;-80
2022/02/17 07:13:10;;;;;;;11.30;2.00;;;;;;;13.20;51.84;100067.13;5033980;28;113183;-80
2022/02/17 07:15:38;;;;;;;10.85;2.22;;;;;;;13.18;51.52;100075.22;5033958;28;123197;-79
2022/02/17 07:18:07;;;;;;;14.70;2.08;;;;;;;13.16;51.48;100070.97;5030643;28;124358;-79
2022/02/17 07:20:40;;;;;;;6.00;1.77;;;;;;;13.15;51.37;100074.59;5027810;28;114868;-79
2022/02/17 07:23:11;;;;;;;14.18;2.65;;;;;;;13.14;51.56;100083.53;5027801;28;112046;-80
2022/02/17 07:25:38;;;;;;;15.55;2.75;;;;;;;13.14;51.69;100070.22;5027585;28;124805;-79
2022/02/17 07:28:05;;;;;;;18.52;2.28;;;;;;;13.13;51.32;100071.16;5027292;28;124327;-79
2022/02/17 07:30:35;;;;;;;13.85;2.33;;;;;;;13.13;51.54;100081.81;5013496;28;112195;-80
2022/02/17 07:33:03;;;;;;;12.70;2.50;;;;;;;13.12;51.70;100074.81;5034042;28;113216;-80
2022/02/17 07:35:31;;;;;;;17.90;2.30;;;;;;;13.13;51.62;100081.81;5033416;28;124526;-79
2022/02/17 07:37:59;;;;;;;12.68;2.47;;;;;;;13.12;51.46;100096.06;5033160;28;123083;-79
2022/02/17 07:40:28;;;;;;;15.50;3.05;;;;;;;13.11;51.73;100099.66;5031220;28;114595;-80
2022/02/17 07:42:56;;;;;;;14.40;2.33;;;;;;;13.11;51.62;100107.66;5013956;28;113045;-81
2022/02/17 07:45:24;;;;;;;7.43;1.90;;;;;;;13.10;51.24;100125.41;5007772;28;122792;-80
2022/02/17 07:47:52;;;;;;;11.30;1.80;;;;;;;13.08;51.08;100139.78;5019564;28;123289;-81
2022/02/17 07:50:23;;;;;;;13.50;1.98;;;;;;;13.05;51.23;100144.34;5019097;28;114374;-81
2022/02/17 07:52:50;;;;;;;7.13;1.42;;;;;;;13.05;50.94;100160.28;5003443;28;113462;-80
2022/02/17 07:55:18;;;;;;;8.70;1.70;;;;;;;13.07;51.23;100162.81;5004417;28;122877;-79
2022/02/17 07:57:45;;;;;;;10.52;1.80;;;;;;;13.07;51.12;100175.28;5016807;28;124092;-80
2022/02/17 08:00:13;;;;;;;11.82;2.28;;;;;;;13.04;50.93;100174.53;5015220;28;113253;-80
2022/02/17 08:02:41;;;;;;;9.15;1.58;;;;;;;13.03;50.99;100162.19;5016315;28;113958;-79
2022/02/17 08:05:12;;;;;;;14.10;2.15;;;;;;;13.00;50.83;100188.97;5016545;28;124060;-79
2022/02/17 08:07:40;;;;;;;9.25;1.92;;;;;;;12.98;50.85;100196.22;5014919;28;123419;-79
2022/02/17 08:10:09;;;;;;;15.10;2.20;;;;;;;12.95;50.83;100212.34;4997983;28;113805;-83
2022/02/17 08:12:43;;;;;;;12.30;2.03;;;;;;;12.95;51.03;100200.88;5016600;28;114391;-81
2022/02/17 08:15:11;;;;;;;8.90;1.83;;;;;;;12.95;50.97;100196.41;5026556;28;123520;-79
2022/02/17 08:17:38;;;;;;;9.27;1.90;;;;;;;12.93;50.71;100214.25;5006998;28;122186;-80
2022/02/17 08:20:07;;;;;;;9.57;1.70;;;;;;;12.91;50.81;100202.88;5023756;28;113628;-80
2022/02/17 08:22:34;;;;;;;11.43;1.65;;;;;;;12.90;50.70;100219.75;5006756;28;113319;-80
2022/02/17 08:25:02;;;;;;;14.80;1.88;;;;;;;12.88;50.58;100234.94;5004857;28;123537;-81
2022/02/17 08:27:31;;;;;;;11.27;2.03;;;;;;;12.86;50.58;100228.88;4997960;28;123264;-80
2022/02/17 08:29:58;;;;;;;9.85;1.90;;;;;;;12.85;50.86;100236.00;4998908;28;114455;-81
2022/02/17 08:32:25;;;;;;;13.50;2.35;;;;;;;12.85;51.00;100245.81;5013367;28;115606;-81
2022/02/17 08:34:53;;;;;;;14.93;2.05;;;;;;;12.87;51.08;100245.72;5012822;28;124547;-82
2022/02/17 08:37:20;;;;;;;16.48;2.15;;;;;;;12.89;50.99;100244.63;5012796;28;123488;-81
2022/02/17 08:39:48;;;;;;;13.50;2.80;;;;;;;12.92;51.27;100244.47;4995836;28;113736;-80
2022/02/17 08:42:15;;;;;;;12.98;2.28;;;;;;;12.94;51.07;100244.34;5016916;28;114158;-81
2022/02/17 08:44:45;;;;;;;12.07;2.05;;;;;;;12.94;50.88;100242.56;5015265;28;123014;-81
2022/02/17 08:47:14;;;;;;;7.75;1.80;;;;;;;12.94;50.47;100253.19;5000170;28;123611;-81
2022/02/17 08:49:42;;;;;;;9.15;1.95;;;;;;;12.94;50.32;100266.47;5018689;28;113750;-81
2022/02/17 08:52:09;;;;;;;12.13;2.22;;;;;;;12.95;50.03;100276.13;5013724;28;112321;-80
2022/02/17 08:54:37;;;;;;;8.73;1.70;;;;;;;12.94;50.11;100279.75;5014221;28;124092;-80
2022/02/17 08:57:05;;;;;;;7.15;1.85;;;;;;;12.97;50.17;100286.69;5012003;28;124351;-80
2022/02/17 08:59:32;;;;;;;9.25;1.83;;;;;;;12.98;49.93;100286.59;5012600;28;114062;-80
2022/02/17 09:01:59;;;;;;;8.45;1.58;;;;;;;12.99;49.88;100304.22;5014792;28;113941;-80
2022/02/17 09:04:32;;;;;;;13.18;1.50;;;;;;;13.03;50.00;100296.91;5011630;28;125189;-80
2022/02/17 09:07:00;;;;;;;10.43;1.58;;;;;;;13.05;49.90;100302.97;5011498;28;123874;-80
2022/02/17 09:09:27;;;;;;;10.60;1.80;;;;;;;13.09;50.07;100304.50;5011468;28;113399;-79
2022/02/17 09:11:54;;;;;;;8.35;1.50;;;;;;;13.11;50.14;100305.25;5011758;28;113219;-80
2022/02/17 09:14:22;;;;;;;7.35;1.73;;;;;;;13.16;49.97;100318.25;5012529;28;123827;-79
2022/02/17 09:16:50;;;;;;;14.70;1.83;;;;;;;13.19;50.01;100326.03;5009462;28;122869;-79
2022/02/17 09:19:17;;;;;;;10.75;1.88;;;;;;;13.22;49.96;100325.81;5009682;28;115558;-79
2022/02/17 09:21:45;;;;;;;9.05;1.63;;;;;;;13.25;49.91;100315.00;5009941;28;113261;-80
2022/02/17 09:24:12;;;;;;;13.63;1.77;;;;;;;13.26;49.30;100332.69;5010699;28;124634;-80
2022/02/17 09:26:39;;;;;;;13.05;1.85;;;;;;;13.27;49.40;100346.81;5009983;28;123180;-80
2022/02/17 09:29:08;;;;;;;10.98;1.70;;;;;;;13.27;49.36;100339.69;5009808;28;114002;-78
2022/02/17 09:31:55;;;;;;;8.20;1.52;;;;;;;13.30;49.45;100360.81;5010018;28;113627;-80
2022/02/17 09:34:22;;;;;;;9.68;1.52;;;;;;;13.31;49.30;100367.81;5015547;28;123613;-79
2022/02/17 09:36:49;;;;;;;8.82;1.83;;;;;;;13.32;49.22;100371.34;5032237;28;122691;-79
2022/02/17 09:39:16;;;;;;;11.57;1.98;;;;;;;13.34;49.46;100372.94;5033526;28;114719;-78
2022/02/17 09:41:45;;;;;;;6.13;1.30;;;;;;;13.37;49.25;100382.53;5030309;28;114251;-78
2022/02/17 09:44:12;;;;;;;4.25;1.38;;;;;;;13.39;49.14;100370.84;5027179;28;123381;-79
2022/02/17 09:46:45;;;;;;;4.85;1.30;;;;;;;13.39;49.22;100392.13;5032437;28;123327;-78
2022/02/17 09:49:20;;;;;;;7.03;1.30;;;;;;;13.41;48.82;100390.22;5026484;28;114931;-78
2022/02/17 09:51:49;;;;;;;7.93;1.20;;;;;;;13.46;48.82;100407.69;4996789;28;112455;-80
2022/02/17 09:54:19;;;;;;;7.88;1.23;;;;;;;13.49;48.69;100410.16;5012378;28;123274;-79
2022/02/17 09:56:46;;;;;;;4.78;1.10;;;;;;;13.53;48.41;100419.66;5012867;28;123671;-79
2022/02/17 09:59:15;;;;;;;7.85;1.30;;;;;;;13.53;48.49;100414.34;5012808;28;115150;-79
2022/02/17 10:01:59;;;;;;;5.70;1.23;;;;;;;13.51;48.25;100432.22;4996442;28;112680;-80
2022/02/17 10:04:27;;;;;;;9.43;1.48;;;;;;;13.51;48.32;100429.53;5012424;28;122460;-79
2022/02/17 10:07:03;;;;;;;5.53;1.23;;;;;;;13.49;48.11;100434.13;5012197;28;122975;-79
2022/02/17 10:09:39;;;;;;;6.82;1.20;;;;;;;13.48;48.13;100453.69;5011877;28;114760;-76
2022/02/17 10:12:11;;;;;;;5.00;1.20;;;;;;;13.48;47.87;100437.72;4995860;28;114227;-80
2022/02/17 10:14:39;;;;;;;4.38;1.13;;;;;;;13.49;47.88;100442.09;5011565;28;123702;-79
2022/02/17 10:17:09;;;;;;;5.32;1.10;;;;;;;13.49;48.04;100442.09;5012235;28;124292;-79
2022/02/17 10:19:40;;;;;;;7.03;1.38;;;;;;;13.51;47.68;100445.50;5011905;28;114971;-78
2022/02/17 10:22:30;;;;;;;5.72;1.10;;;;;;;13.52;47.70;100455.19;5011828;28;113364;-78
2022/02/17 10:25:00;;;;;;;4.97;0.98;;;;;;;13.50;47.58;100473.06;5012407;28;125109;-80
2022/02/17 10:27:30;;;;;;;8.98;1.20;;;;;;;13.50;47.51;100475.72;5012249;28;124006;-79
2022/02/17 10:29:59;;;;;;;5.88;1.40;;;;;;;13.51;47.51;100485.41;4994396;28;113630;-79
2022/02/17 10:32:27;;;;;;;7.57;1.27;;;;;;;13.51;47.84;100486.28;5011817;28;113921;-79
2022/02/17 10:35:12;;;;;;;7.35;1.20;;;;;;;13.52;47.57;100484.44;5011374;28;123623;-79
2022/02/17 10:37:51;;;;;;;5.65;1.23;;;;;;;13.55;47.56;100481.59;5010287;28;123111;-79
2022/02/17 10:40:21;;;;;;;2.67;1.08;;;;;;;13.56;47.39;100488.63;5009215;28;113654;-78
2022/02/17 10:43:05;;;;;;;8.43;1.23;;;;;;;13.57;47.38;100485.03;5011348;28;112045;-78
2022/02/17 10:45:39;;;;;;;6.47;1.08;;;;;;;13.60;47.43;100500.81;5010450;28;123348;-78
2022/02/17 10:48:12;;;;;;;6.93;1.10;;;;;;;13.61;47.17;100506.00;5010097;28;123663;-77
2022/02/17 10:50:41;;;;;;;7.72;1.30;;;;;;;13.59;46.89;100507.91;5011204;28;113894;-78
2022/02/17 10:53:18;;;;;;;5.63;1.10;;;;;;;13.58;46.99;100513.31;5011300;28;113187;-78
2022/02/17 10:55:56;;;;;;;7.65;1.30;;;;;;;13.58;46.89;100526.63;5010295;28;124457;-78
2022/02/17 10:58:27;;;;;;;6.53;1.20;;;;;;;13.57;46.94;100532.91;5009918;28;122690;-78
2022/02/17 11:01:07;;;;;;;6.07;1.15;;;;;;;13.57;46.78;100527.59;4993424;28;114910;-78
2022/02/17 11:03:37;;;;;;;6.82;1.33;;;;;;;13.56;46.82;100547.16;5011002;28;113496;-79
2022/02/17 11:06:10;;;;;;;5.72;1.30;;;;;;;13.56;46.89;100541.84;5009774;28;123042;-78
2022/02/17 11:08:42;;;;;;;6.30;1.30;;;;;;;13.57;46.55;100543.56;4994015;28;122615;-79
2022/02/17 11:11:13;;;;;;;6.03;1.00;;;;;;;13.57;46.62;100543.56;5011505;28;114110;-79
2022/02/17 11:13:47;;;;;;;5.75;1.10;;;;;;;13.58;46.61;100539.94;5014202;28;114549;-78
2022/02/17 11:16:24;;;;;;;6.75;1.17;;;;;;;13.61;46.60;100561.03;5029705;27;123686;-78
2022/02/17 11:18:58;;;;;;;3.85;1.20;;;;;;;13.64;46.75;100566.19;5025391;28;124391;-78
2022/02/17 11:21:28;;;;;;;7.05;1.33;;;;;;;13.71;46.80;100562.19;5011569;28;113943;-79
2022/02/17 11:24:01;;;;;;;8.40;1.10;;;;;;;13.75;46.57;100571.69;5011910;28;113890;-79
2022/02/17 11:26:32;;;;;;;6.13;1.00;;;;;;;13.81;46.59;100567.78;5008959;28;122456;-79
2022/02/17 11:29:33;;;;;;;8.95;1.20;;;;;;;13.82;46.63;100565.03;5008768;28;123785;-79
2022/02/17 11:32:02;;;;;;;7.25;1.30;;;;;;;13.86;46.62;100564.81;4992945;28;113763;-79
2022/02/17 11:34:43;;;;;;;7.18;1.13;;;;;;;13.88;46.49;100594.88;5009913;28;113879;-79
2022/02/17 11:37:22;;;;;;;6.70;1.00;;;;;;;13.93;46.58;100582.13;5014024;28;123595;-79